Time;durP1;ratioP1;P1;durP2;ratioP2;P2;SDS_P1;SDS_P2;PMS_P1;PMS_P2;Temp;Humidity;BMP_temperature;BMP_pressure;BME280_temperature;BME280_humidity;BME280_pressure;Samples;Min_cycle;Max_cycle;Signal;HPM_P1;HPM_P2
2024/03/19 00:00:12;;;;;;;1.27;1.17;;;;;;;2.37;63.27;99818.91;5092799;28;20040;-66
2024/03/19 00:02:40;;;;;;;1.20;1.15;;;;;;;2.38;63.43;99815.56;5075930;28;20047;-65
2024/03/19 00:05:10;;;;;;;0.80;0.80;;;;;;;2.34;63.46;99816.28;5092699;28;20035;-65
2024/03/19 00:07:36;;;;;;;1.65;1.55;;;;;;;2.23;63.91;99812.53;5075393;28;20074;-65
2024/03/19 00:10:04;;;;;;;0.70;0.70;;;;;;;2.14;63.38;99814.72;5092601;28;20398;-66
2024/03/19 00:12:32;;;;;;;1.95;1.80;;;;;;;2.12;63.78;99806.28;5092553;28;20040;-66
2024/03/19 00:15:00;;;;;;;4.25;2.55;;;;;;;2.01;64.20;99822.69;5092684;28;20052;-66
2024/03/19 00:17:28;;;;;;;1.58;1.48;;;;;;;1.98;64.05;99815.00;5092082;28;20047;-66
2024/03/19 00:19:56;;;;;;;0.70;0.70;;;;;;;2.05;64.68;99819.44;5092836;28;20082;-65
2024/03/19 00:22:25;;;;;;;3.75;1.10;;;;;;;2.00;64.25;99820.94;5092832;28;20044;-66
2024/03/19 00:24:53;;;;;;;1.02;1.02;;;;;;;2.01;64.23;99820.16;5095893;28;20131;-66
2024/03/19 00:27:21;;;;;;;3.28;1.50;;;;;;;2.06;64.67;99821.19;5062210;28;20440;-66
2024/03/19 00:29:48;;;;;;;0.55;0.55;;;;;;;2.03;64.23;99826.09;5096628;28;20224;-65
2024/03/19 00:32:16;;;;;;;0.95;0.95;;;;;;;1.96;64.90;99814.09;5096251;28;20387;-66
2024/03/19 00:34:44;;;;;;;0.60;0.60;;;;;;;1.91;64.49;99820.63;5096196;28;20040;-66
2024/03/19 00:37:12;;;;;;;0.95;0.80;;;;;;;1.88;64.99;99830.56;5096632;28;20117;-65
2024/03/19 00:39:42;;;;;;;0.75;0.75;;;;;;;1.83;64.73;99832.06;5096181;28;20379;-66
2024/03/19 00:42:10;;;;;;;0.50;0.50;;;;;;;1.73;65.52;99824.97;5079408;28;20052;-66
2024/03/19 00:44:37;;;;;;;1.23;1.20;;;;;;;1.71;65.16;99826.59;5096348;28;20043;-66
2024/03/19 00:47:05;;;;;;;2.28;1.48;;;;;;;1.66;65.46;99823.03;5095902;28;20397;-65
2024/03/19 00:49:33;;;;;;;0.73;0.73;;;;;;;1.67;66.13;99829.81;5079216;28;20111;-65
2024/03/19 00:52:01;;;;;;;1.27;1.17;;;;;;;1.70;66.19;99830.78;5096427;28;20040;-66
2024/03/19 00:54:29;;;;;;;0.80;0.52;;;;;;;1.64;66.29;99828.03;5095962;28;20089;-68
2024/03/19 00:56:58;;;;;;;2.55;1.58;;;;;;;1.64;66.15;99832.19;5095802;28;20037;-66
2024/03/19 00:59:25;;;;;;;1.48;1.38;;;;;;;1.67;66.09;99824.78;5095719;28;20405;-66
2024/03/19 01:01:53;;;;;;;0.32;0.32;;;;;;;1.71;66.12;99835.00;5095941;28;20032;-66
2024/03/19 01:04:21;;;;;;;0.98;0.98;;;;;;;1.79;66.43;99835.28;5079055;28;20101;-66
2024/03/19 01:06:51;;;;;;;1.98;1.77;;;;;;;1.88;66.00;99836.47;5078739;28;20410;-66
2024/03/19 01:09:19;;;;;;;0.75;0.75;;;;;;;1.92;65.51;99833.25;5095825;28;20037;-66
2024/03/19 01:11:47;;;;;;;1.83;1.65;;;;;;;1.99;66.67;99830.16;5095467;28;20036;-66
2024/03/19 01:14:16;;;;;;;0.65;0.65;;;;;;;2.09;65.69;99831.31;5078738;28;20109;-66
2024/03/19 01:16:44;;;;;;;0.80;0.80;;;;;;;2.16;66.26;99830.75;5078846;28;20137;-66
2024/03/19 01:19:12;;;;;;;3.90;1.48;;;;;;;2.21;65.52;99834.28;5095610;28;20094;-66
2024/03/19 01:21:39;;;;;;;1.23;0.77;;;;;;;2.27;65.20;99826.94;5078472;28;20040;-66
2024/03/19 01:24:07;;;;;;;2.50;1.58;;;;;;;2.32;65.74;99835.53;5078653;28;20036;-66
2024/03/19 01:26:35;;;;;;;0.95;0.95;;;;;;;2.31;65.69;99837.97;5095274;28;20047;-66
2024/03/19 01:29:03;;;;;;;0.95;0.95;;;;;;;2.32;65.34;99835.53;5095075;28;20047;-66
2024/03/19 01:31:33;;;;;;;1.45;1.35;;;;;;;2.35;65.38;99830.56;5095450;28;20044;-66
2024/03/19 01:34:01;;;;;;;0.93;0.93;;;;;;;2.34;64.40;99831.38;5078553;28;20056;-66
2024/03/19 01:36:29;;;;;;;0.82;0.82;;;;;;;2.32;64.59;99830.47;5094662;28;20047;-65
2024/03/19 01:38:56;;;;;;;2.30;1.23;;;;;;;2.25;63.84;99827.69;5095218;28;20093;-66
2024/03/19 01:41:24;;;;;;;0.70;0.70;;;;;;;2.24;64.61;99834.38;5094926;28;20039;-66
2024/03/19 01:43:52;;;;;;;0.63;0.63;;;;;;;2.25;64.35;99833.59;5095427;28;20093;-66
2024/03/19 01:46:27;;;;;;;1.92;1.40;;;;;;;2.21;64.29;99829.25;5061021;28;20379;-66
2024/03/19 01:48:58;;;;;;;0.75;0.75;;;;;;;2.14;64.30;99829.84;5095221;28;20044;-66
2024/03/19 01:51:26;;;;;;;1.65;1.25;;;;;;;2.13;64.63;99833.16;5094750;28;20055;-66
2024/03/19 01:53:56;;;;;;;0.80;0.80;;;;;;;2.14;65.13;99834.00;5095063;28;20059;-66
2024/03/19 01:56:24;;;;;;;0.93;0.90;;;;;;;2.13;65.39;99829.78;5094628;28;20048;-65
2024/03/19 01:58:53;;;;;;;0.60;0.60;;;;;;;2.08;64.99;99823.75;5094695;28;20122;-66
2024/03/19 02:01:21;;;;;;;0.43;0.43;;;;;;;1.98;65.06;99828.47;5094572;28;20036;-66
2024/03/19 02:03:50;;;;;;;0.93;0.85;;;;;;;1.93;64.70;99824.06;5094613;28;20036;-66
2024/03/19 02:06:20;;;;;;;1.02;0.60;;;;;;;1.83;65.16;99832.94;5094719;28;20040;-66
2024/03/19 02:09:08;;;;;;;1.02;1.02;;;;;;;1.81;65.92;99833.69;5094781;28;20048;-65
2024/03/19 02:11:36;;;;;;;1.48;1.35;;;;;;;1.79;65.76;99840.31;5094711;28;20075;-66
2024/03/19 02:14:05;;;;;;;3.25;0.95;;;;;;;1.62;65.76;99831.28;5094832;28;20040;-66
2024/03/19 02:16:34;;;;;;;0.57;0.57;;;;;;;1.70;66.03;99842.50;5077708;28;20039;-66
2024/03/19 02:19:04;;;;;;;0.80;0.73;;;;;;;1.59;66.24;99843.75;5094254;28;20502;-66
2024/03/19 02:21:35;;;;;;;1.00;0.77;;;;;;;1.52;66.29;99844.31;5094322;28;20044;-66
2024/03/19 02:24:04;;;;;;;2.47;2.03;;;;;;;1.51;66.69;99847.66;5060463;28;20056;-66
2024/03/19 02:26:32;;;;;;;0.32;0.32;;;;;;;1.51;67.27;99848.50;5077321;28;20052;-66
2024/03/19 02:29:02;;;;;;;1.00;0.95;;;;;;;1.41;66.74;99854.00;5094311;28;20040;-66
2024/03/19 02:31:30;;;;;;;2.00;1.88;;;;;;;1.29;67.02;99866.09;5094236;28;20051;-66
2024/03/19 02:33:58;;;;;;;1.48;1.38;;;;;;;0.81;67.17;99787.16;5094255;28;20047;-66
2024/03/19 02:36:26;;;;;;;1.73;1.60;;;;;;;1.20;67.36;99860.72;5094114;28;20035;-66
2024/03/19 02:38:52;;;;;;;2.17;2.00;;;;;;;1.16;67.54;99858.84;5094158;28;20055;-66
2024/03/19 02:41:21;;;;;;;1.08;1.00;;;;;;;1.08;67.50;99846.00;5077252;28;20040;-66
2024/03/19 02:43:49;;;;;;;2.33;1.17;;;;;;;1.18;67.50;99863.16;5093774;28;20058;-66
2024/03/19 02:46:17;;;;;;;0.90;0.90;;;;;;;1.14;68.03;99865.47;5093404;28;20036;-66
2024/03/19 02:48:45;;;;;;;1.75;1.52;;;;;;;1.13;68.29;99874.66;5093237;28;20043;-66
2024/03/19 02:51:12;;;;;;;2.80;2.58;;;;;;;1.17;68.31;99863.97;5094081;28;20508;-66
2024/03/19 02:53:40;;;;;;;0.82;0.82;;;;;;;1.19;68.36;99872.41;5093515;28;20494;-66
2024/03/19 02:56:08;;;;;;;1.75;1.30;;;;;;;1.16;69.11;99869.78;5076415;28;20048;-66
2024/03/19 02:58:37;;;;;;;1.40;1.30;;;;;;;1.20;69.33;99874.13;5094280;28;20486;-66
2024/03/19 03:01:05;;;;;;;1.02;1.00;;;;;;;1.15;69.42;99872.25;5076794;28;20093;-66
2024/03/19 03:03:33;;;;;;;2.63;1.95;;;;;;;1.12;69.40;99878.00;5076671;28;20075;-66
2024/03/19 03:06:01;;;;;;;0.98;0.98;;;;;;;1.03;68.85;99882.63;5093558;28;20036;-66
2024/03/19 03:08:29;;;;;;;2.95;1.55;;;;;;;0.94;68.93;99879.75;5093259;28;20040;-67
2024/03/19 03:10:57;;;;;;;1.08;1.00;;;;;;;0.88;68.73;99881.19;5076621;28;20040;-67
2024/03/19 03:13:25;;;;;;;2.97;1.85;;;;;;;0.90;68.90;99884.59;5093111;28;20052;-66
2024/03/19 03:15:54;;;;;;;0.88;0.88;;;;;;;0.79;69.26;99886.69;5093428;28;20040;-66
2024/03/19 03:18:22;;;;;;;1.50;1.40;;;;;;;0.69;69.27;99884.59;5093713;28;20189;-66
2024/03/19 03:20:49;;;;;;;0.88;0.88;;;;;;;0.62;69.39;99878.44;5076394;28;20402;-66
2024/03/19 03:23:17;;;;;;;4.72;2.70;;;;;;;0.69;69.52;99894.66;5093223;28;20398;-66
2024/03/19 03:25:45;;;;;;;1.23;1.10;;;;;;;0.62;69.52;99898.53;5092997;28;20036;-66
2024/03/19 03:28:13;;;;;;;1.33;1.25;;;;;;;0.48;69.88;99873.66;5075875;28;20047;-66
2024/03/19 03:30:41;;;;;;;0.50;0.50;;;;;;;0.69;69.36;99909.72;5093029;28;20036;-66
2024/03/19 03:33:11;;;;;;;0.60;0.60;;;;;;;0.73;69.77;99901.50;5076274;28;20040;-66
2024/03/19 03:35:39;;;;;;;3.65;1.60;;;;;;;0.72;70.05;99909.81;5093471;28;20059;-66
2024/03/19 03:38:07;;;;;;;1.80;1.25;;;;;;;0.67;69.85;99911.31;5076138;28;20040;-66
2024/03/19 03:40:35;;;;;;;3.70;1.88;;;;;;;0.63;69.89;99914.47;5093113;28;20062;-66
2024/03/19 03:43:03;;;;;;;2.00;1.35;;;;;;;0.45;70.07;99897.00;5092668;28;20044;-67
2024/03/19 03:45:31;;;;;;;0.77;0.77;;;;;;;0.50;70.10;99910.59;5093285;28;20072;-66
2024/03/19 03:47:59;;;;;;;1.08;0.98;;;;;;;0.50;70.00;99912.25;5092732;28;20036;-66
2024/03/19 03:50:28;;;;;;;1.65;0.77;;;;;;;0.48;70.37;99912.16;5076158;28;20048;-67
2024/03/19 03:52:56;;;;;;;;;;;;;;;0.51;69.97;99916.44;5093007;28;20428;-67
2024/03/19 03:55:23;;;;;;;0.57;0.57;;;;;;;0.53;70.18;99918.22;5075289;28;19919;-67
2024/03/19 03:57:52;;;;;;;3.35;2.67;;;;;;;0.39;69.92;99905.88;5092605;28;20094;-66
2024/03/19 04:00:20;;;;;;;1.80;1.45;;;;;;;0.40;70.30;99918.53;5092754;28;20383;-67
2024/03/19 04:02:49;;;;;;;1.20;1.10;;;;;;;0.43;70.33;99925.31;5059203;28;20040;-66
2024/03/19 04:05:16;;;;;;;6.20;3.40;;;;;;;0.40;70.46;99925.19;5092471;28;20486;-66
2024/03/19 04:07:46;;;;;;;2.17;1.92;;;;;;;0.37;70.64;99930.06;5092602;28;20035;-66
2024/03/19 04:10:15;;;;;;;0.88;0.88;;;;;;;0.33;70.69;99934.13;5075882;28;20040;-67
2024/03/19 04:12:44;;;;;;;3.85;1.98;;;;;;;0.31;70.13;99934.84;5092648;28;20413;-67
2024/03/19 04:15:13;;;;;;;2.22;1.13;;;;;;;0.36;70.90;99933.38;5075661;28;20036;-67
2024/03/19 04:17:41;;;;;;;1.13;1.10;;;;;;;0.22;70.87;99921.84;5092671;28;20559;-67
2024/03/19 04:20:11;;;;;;;2.08;1.88;;;;;;;0.30;70.67;99935.63;5092634;28;20265;-67
2024/03/19 04:22:39;;;;;;;2.03;1.88;;;;;;;0.25;70.67;99932.91;5092596;28;20044;-67
2024/03/19 04:25:09;;;;;;;4.50;2.35;;;;;;;0.23;70.96;99937.00;5092306;28;20043;-67
2024/03/19 04:27:38;;;;;;;1.73;1.63;;;;;;;0.15;70.74;99937.44;5092351;28;20062;-67
2024/03/19 04:30:07;;;;;;;1.20;1.10;;;;;;;0.14;71.11;99941.63;5092412;28;20054;-67
2024/03/19 04:32:35;;;;;;;2.30;2.10;;;;;;;0.12;71.14;99937.31;5092757;28;20047;-67
2024/03/19 04:35:03;;;;;;;0.73;0.73;;;;;;;0.13;71.39;99944.03;5092043;28;20090;-67
2024/03/19 04:37:31;;;;;;;1.80;1.70;;;;;;;0.06;71.28;99927.00;5092072;28;20040;-67
2024/03/19 04:39:58;;;;;;;0.30;0.30;;;;;;;0.08;71.16;99945.50;5075609;28;20398;-67
2024/03/19 04:42:28;;;;;;;1.38;0.95;;;;;;;0.05;71.71;99937.84;5092191;28;20044;-67
2024/03/19 04:44:57;;;;;;;2.70;2.30;;;;;;;0.05;71.46;99941.19;5092610;28;20048;-67
2024/03/19 04:47:25;;;;;;;4.15;2.80;;;;;;;0.06;71.46;99947.94;5092115;28;20490;-66
2024/03/19 04:49:52;;;;;;;2.95;2.10;;;;;;;0.07;71.55;99948.81;5092340;28;20037;-67
2024/03/19 04:52:21;;;;;;;2.13;1.98;;;;;;;0.05;71.76;99952.91;5092284;28;20036;-67
2024/03/19 04:54:49;;;;;;;0.75;0.75;;;;;;;0.02;71.52;99950.25;5092022;28;20130;-67
2024/03/19 04:57:17;;;;;;;2.17;2.03;;;;;;;-0.01;71.61;99961.88;5075257;28;20093;-67
2024/03/19 04:59:46;;;;;;;1.00;0.98;;;;;;;0.09;71.56;99963.13;5092154;28;20036;-67
2024/03/19 05:02:14;;;;;;;2.33;1.20;;;;;;;0.09;71.52;99970.66;5092387;28;20044;-67
2024/03/19 05:04:41;;;;;;;1.08;1.05;;;;;;;0.04;71.83;99963.72;5092087;28;20044;-67
2024/03/19 05:07:09;;;;;;;1.65;1.55;;;;;;;0.03;71.75;99967.00;5075008;28;20040;-67
2024/03/19 05:09:37;;;;;;;0.65;0.65;;;;;;;0.06;71.90;99972.16;5091804;28;20044;-67
2024/03/19 05:12:06;;;;;;;1.52;1.42;;;;;;;0.05;72.15;99961.25;5095226;28;20044;-67
2024/03/19 05:14:34;;;;;;;3.65;3.40;;;;;;;0.03;71.91;99977.03;5095731;28;20094;-67
2024/03/19 05:17:04;;;;;;;1.88;1.75;;;;;;;0.07;71.91;99978.91;5095717;28;20035;-67
2024/03/19 05:19:32;;;;;;;7.70;6.55;;;;;;;0.09;72.26;99983.22;5095431;28;20486;-67
2024/03/19 05:22:00;;;;;;;1.52;1.42;;;;;;;0.10;72.38;99979.06;5095588;28;20052;-67
2024/03/19 05:24:28;;;;;;;2.27;2.10;;;;;;;0.07;72.08;99983.94;5078989;28;20048;-67
2024/03/19 05:26:56;;;;;;;2.42;2.22;;;;;;;0.12;72.50;99987.50;5095505;28;20040;-67
2024/03/19 05:29:23;;;;;;;3.28;2.08;;;;;;;0.13;72.56;99989.22;5095105;28;20048;-67
2024/03/19 05:31:51;;;;;;;9.10;3.10;;;;;;;0.20;72.50;99996.22;5095474;28;20040;-67
2024/03/19 05:34:20;;;;;;;4.70;3.75;;;;;;;0.31;73.06;99990.88;5061703;28;20398;-67
2024/03/19 05:36:48;;;;;;;6.22;5.32;;;;;;;0.40;72.75;99990.44;5095195;28;20040;-67
2024/03/19 05:39:16;;;;;;;1.77;1.67;;;;;;;0.47;72.83;99997.47;5095362;28;20043;-67
2024/03/19 05:41:43;;;;;;;5.20;4.28;;;;;;;0.63;72.94;99999.84;5078307;28;20101;-67
2024/03/19 05:44:11;;;;;;;3.17;2.13;;;;;;;0.73;72.82;100004.47;5095502;28;20040;-67
2024/03/19 05:46:39;;;;;;;0.73;0.73;;;;;;;0.79;72.61;100001.38;5095090;28;20119;-67
2024/03/19 05:49:09;;;;;;;3.78;3.45;;;;;;;0.96;72.61;100010.50;5094727;28;20113;-67
2024/03/19 05:51:38;;;;;;;1.10;1.00;;;;;;;1.13;71.68;100007.88;5078097;28;20097;-67
2024/03/19 05:54:06;;;;;;;1.65;1.48;;;;;;;1.29;72.27;100007.72;5061424;28;20043;-67
2024/03/19 05:56:34;;;;;;;0.77;0.77;;;;;;;1.43;71.71;100014.94;5094561;28;20052;-67
2024/03/19 05:59:02;;;;;;;3.30;3.08;;;;;;;1.62;71.19;100012.38;5095022;28;20044;-67
2024/03/19 06:01:30;;;;;;;1.38;1.27;;;;;;;1.66;71.22;99994.94;5094476;28;20088;-67
2024/03/19 06:04:00;;;;;;;1.08;1.02;;;;;;;1.97;69.97;100012.09;5094672;28;20436;-67
2024/03/19 06:06:28;;;;;;;2.03;1.92;;;;;;;2.10;70.03;100014.28;5078024;28;20036;-68
2024/03/19 06:08:58;;;;;;;5.55;2.15;;;;;;;2.20;69.35;100013.84;5077538;28;20036;-68
2024/03/19 06:11:26;;;;;;;1.02;0.75;;;;;;;2.26;68.81;100011.53;5094653;28;20173;-68
2024/03/19 06:13:54;;;;;;;1.95;1.85;;;;;;;2.36;68.34;100000.16;5094505;28;20043;-68
2024/03/19 06:16:22;;;;;;;1.00;1.00;;;;;;;2.45;68.05;100008.88;5094492;28;20047;-68
2024/03/19 06:18:50;;;;;;;1.13;1.02;;;;;;;2.53;68.19;100007.53;5094477;28;20047;-68
2024/03/19 06:21:18;;;;;;;2.63;2.35;;;;;;;2.62;67.06;100014.53;5077389;28;20150;-68
2024/03/19 06:23:46;;;;;;;3.90;3.35;;;;;;;2.68;66.90;100013.13;5094330;28;20094;-68
2024/03/19 06:26:15;;;;;;;1.33;1.23;;;;;;;2.76;66.99;100020.09;5094270;28;20054;-67
2024/03/19 06:28:43;;;;;;;1.08;1.02;;;;;;;2.85;66.96;100013.72;5077110;28;20046;-68
2024/03/19 06:31:11;;;;;;;3.30;2.83;;;;;;;2.93;65.97;100019.03;5077270;28;20037;-67
2024/03/19 06:33:39;;;;;;;3.22;2.83;;;;;;;2.92;66.02;100017.28;5094486;28;20036;-67
2024/03/19 06:36:07;;;;;;;1.15;1.05;;;;;;;2.95;64.89;100022.44;5077221;28;20040;-67
2024/03/19 06:38:35;;;;;;;1.33;1.23;;;;;;;3.01;65.05;100025.16;5077269;28;20044;-67
2024/03/19 06:41:03;;;;;;;2.13;2.03;;;;;;;3.19;65.23;100028.34;5093705;28;20082;-67
2024/03/19 06:43:32;;;;;;;1.88;1.77;;;;;;;3.29;65.50;100027.81;5094039;28;20036;-67
2024/03/19 06:46:00;;;;;;;2.08;1.98;;;;;;;3.25;65.28;100033.56;5093730;28;20537;-67
2024/03/19 06:48:28;;;;;;;1.20;0.82;;;;;;;3.17;65.08;100032.44;5093743;28;20040;-67
2024/03/19 06:50:56;;;;;;;1.23;1.13;;;;;;;3.07;64.38;100038.00;5076891;28;20050;-67
2024/03/19 06:53:24;;;;;;;2.05;1.85;;;;;;;3.07;64.66;100038.00;5093512;28;20040;-67
2024/03/19 06:55:52;;;;;;;2.60;2.17;;;;;;;2.96;65.43;100035.09;5093438;28;20498;-67
2024/03/19 06:58:20;;;;;;;1.65;1.52;;;;;;;2.98;65.77;100042.69;5093653;28;20043;-67
2024/03/19 07:00:51;;;;;;;2.33;1.98;;;;;;;2.94;65.56;100026.63;5093724;28;20059;-67
2024/03/19 07:03:20;;;;;;;4.65;3.72;;;;;;;2.96;65.56;100034.22;5093534;28;20048;-67
2024/03/19 07:05:50;;;;;;;2.50;2.22;;;;;;;3.01;65.71;100042.81;5093644;28;20097;-66
2024/03/19 07:08:18;;;;;;;1.80;1.70;;;;;;;2.97;65.13;100046.03;5093079;28;20040;-67
2024/03/19 07:10:45;;;;;;;1.17;0.93;;;;;;;2.93;65.34;100050.09;5093222;28;20040;-66
2024/03/19 07:13:14;;;;;;;3.40;2.38;;;;;;;2.97;64.89;100056.13;5093225;28;20044;-67
2024/03/19 07:15:42;;;;;;;4.43;2.25;;;;;;;3.09;65.46;100052.38;5093468;28;20044;-67
2024/03/19 07:18:12;;;;;;;4.97;1.55;;;;;;;3.12;65.61;100054.97;5084199;28;20044;-67
2024/03/19 07:20:40;;;;;;;1.63;1.52;;;;;;;3.16;64.80;100063.53;5076471;28;20093;-66
2024/03/19 07:23:08;;;;;;;3.05;2.35;;;;;;;3.17;64.40;100060.19;5073093;28;20044;-67
2024/03/19 07:25:36;;;;;;;2.17;1.90;;;;;;;3.14;64.72;100065.13;5056312;28;20037;-67
2024/03/19 07:28:04;;;;;;;3.00;1.38;;;;;;;3.25;64.79;100069.75;5076046;28;20043;-67
2024/03/19 07:30:33;;;;;;;1.75;1.50;;;;;;;3.29;64.31;100058.09;5092522;28;20040;-67
2024/03/19 07:33:01;;;;;;;4.70;2.28;;;;;;;3.45;64.31;100062.84;5092515;28;20073;-67
2024/03/19 07:35:31;;;;;;;2.35;2.15;;;;;;;3.58;64.31;100059.91;5059556;28;20051;-67
2024/03/19 07:37:58;;;;;;;0.65;0.65;;;;;;;3.63;63.96;100058.41;5092994;28;20036;-66
2024/03/19 07:40:26;;;;;;;1.65;1.55;;;;;;;3.79;63.92;100070.72;5075936;28;20051;-67
2024/03/19 07:42:56;;;;;;;2.08;1.80;;;;;;;3.84;63.51;100071.72;5092660;28;20506;-67
2024/03/19 07:45:23;;;;;;;1.08;0.68;;;;;;;3.93;63.58;100078.75;5092940;28;20218;-67
2024/03/19 07:47:51;;;;;;;1.13;1.10;;;;;;;3.91;63.82;100077.84;5092740;28;20090;-66
2024/03/19 07:50:22;;;;;;;5.15;4.13;;;;;;;3.97;63.32;100076.38;5075618;28;20036;-67
2024/03/19 07:52:52;;;;;;;1.05;0.95;;;;;;;3.91;63.41;100058.47;5056212;28;20135;-67
2024/03/19 07:55:19;;;;;;;0.73;0.73;;;;;;;4.13;63.44;100077.69;5072500;28;20045;-66
2024/03/19 07:57:47;;;;;;;3.90;1.85;;;;;;;4.25;63.80;100077.22;5072911;28;20450;-67
2024/03/19 08:00:15;;;;;;;4.03;1.98;;;;;;;4.39;63.33;100076.81;5072180;28;20040;-67
2024/03/19 08:02:44;;;;;;;1.30;1.23;;;;;;;4.55;63.12;100083.19;5072256;28;20507;-67
2024/03/19 08:05:13;;;;;;;2.60;2.05;;;;;;;4.50;63.27;100057.78;5072484;28;20062;-66
2024/03/19 08:07:43;;;;;;;1.40;1.13;;;;;;;4.73;62.67;100073.59;5072492;28;20203;-66
2024/03/19 08:10:13;;;;;;;0.63;0.63;;;;;;;4.87;62.54;100082.44;5054632;28;20044;-66
2024/03/19 08:12:40;;;;;;;5.93;1.73;;;;;;;5.02;62.17;100085.41;5055263;28;20487;-66
2024/03/19 08:15:09;;;;;;;1.67;1.58;;;;;;;5.12;61.55;100069.66;5072406;28;20135;-66
2024/03/19 08:17:37;;;;;;;1.30;1.20;;;;;;;5.23;61.06;100063.19;5055662;28;20406;-66
2024/03/19 08:20:12;;;;;;;2.38;2.15;;;;;;;5.58;60.92;100083.50;5072389;28;20036;-66
2024/03/19 08:22:41;;;;;;;1.80;1.55;;;;;;;5.92;60.18;100083.56;5072376;28;20113;-66
2024/03/19 08:25:09;;;;;;;8.60;1.55;;;;;;;6.34;59.34;100093.84;5071515;28;20105;-66
2024/03/19 08:27:38;;;;;;;1.42;1.02;;;;;;;6.61;57.79;100092.78;5072175;28;20045;-67
2024/03/19 08:30:08;;;;;;;6.93;1.40;;;;;;;6.59;54.36;100091.91;5072023;28;20037;-65
2024/03/19 08:32:37;;;;;;;1.00;0.93;;;;;;;6.64;53.67;100092.00;5071788;28;20470;-66
2024/03/19 08:35:08;;;;;;;1.23;0.85;;;;;;;6.86;52.05;100090.78;5072004;28;20041;-65
2024/03/19 08:37:37;;;;;;;2.20;1.75;;;;;;;6.82;51.70;100089.84;5072111;28;20055;-65
2024/03/19 08:40:06;;;;;;;0.98;0.90;;;;;;;7.00;49.93;100089.38;5055418;28;20056;-65
2024/03/19 08:42:34;;;;;;;;;;;;;;;6.87;49.63;100089.91;5072347;28;20076;-66
2024/03/19 08:45:04;;;;;;;0.50;0.50;;;;;;;6.85;49.27;100089.03;5079669;28;19920;-65
2024/03/19 08:47:32;;;;;;;0.55;0.55;;;;;;;7.34;50.21;100086.66;5095584;28;20043;-66
2024/03/19 08:50:00;;;;;;;1.27;1.17;;;;;;;7.30;48.92;100080.66;5095381;28;20040;-65
2024/03/19 08:52:28;;;;;;;1.08;1.05;;;;;;;7.17;48.65;100088.00;5095304;28;20040;-65
2024/03/19 08:54:56;;;;;;;0.63;0.63;;;;;;;7.24;47.98;100089.84;5078570;28;20043;-66
2024/03/19 08:57:24;;;;;;;0.82;0.75;;;;;;;7.13;47.88;100087.09;5078679;28;20086;-66
2024/03/19 08:59:52;;;;;;;1.92;1.20;;;;;;;7.06;47.96;100095.41;5095713;28;20040;-66
2024/03/19 09:02:22;;;;;;;1.20;0.82;;;;;;;6.95;48.40;100085.88;5095895;28;20398;-67
2024/03/19 09:04:50;;;;;;;0.63;0.63;;;;;;;7.29;47.83;100094.16;5096142;28;20055;-66
2024/03/19 09:07:18;;;;;;;1.25;1.15;;;;;;;7.36;47.55;100095.16;5095883;28;20036;-66
2024/03/19 09:09:48;;;;;;;0.65;0.65;;;;;;;7.28;47.74;100094.13;5078661;28;20048;-65
2024/03/19 09:12:15;;;;;;;0.50;0.50;;;;;;;7.27;47.39;100102.59;5095820;28;20040;-66
2024/03/19 09:14:43;;;;;;;0.40;0.40;;;;;;;7.33;47.77;100095.94;5095611;28;20044;-65
2024/03/19 09:17:11;;;;;;;0.50;0.50;;;;;;;7.27;47.28;100102.59;5095902;28;20051;-66
2024/03/19 09:19:41;;;;;;;1.08;1.00;;;;;;;7.17;47.00;100098.16;5095655;28;20126;-66
2024/03/19 09:22:09;;;;;;;0.40;0.40;;;;;;;7.15;47.45;100104.91;5095379;28;20036;-65
2024/03/19 09:24:37;;;;;;;0.40;0.40;;;;;;;7.27;47.85;100110.22;5095427;28;20090;-67
2024/03/19 09:27:06;;;;;;;1.35;1.15;;;;;;;7.17;46.79;100114.25;5078732;28;20048;-66
2024/03/19 09:29:34;;;;;;;0.47;0.47;;;;;;;7.05;47.14;100118.22;5095373;28;20044;-65
2024/03/19 09:32:02;;;;;;;2.90;2.13;;;;;;;6.86;46.89;100114.47;5095438;28;20079;-65
2024/03/19 09:34:30;;;;;;;0.73;0.73;;;;;;;6.86;46.54;100113.59;5095425;28;20051;-66
2024/03/19 09:36:59;;;;;;;0.50;0.50;;;;;;;6.90;46.16;100117.91;5078364;28;20040;-65
2024/03/19 09:39:27;;;;;;;0.57;0.57;;;;;;;6.87;46.59;100127.97;5095664;28;20058;-66
2024/03/19 09:42:05;;;;;;;0.57;0.57;;;;;;;6.87;45.78;100127.97;5095254;28;20071;-65
2024/03/19 09:44:33;;;;;;;0.32;0.32;;;;;;;6.84;46.27;100125.41;5095182;28;20071;-65
2024/03/19 09:47:01;;;;;;;0.60;0.60;;;;;;;6.86;46.17;100126.28;5095133;28;20040;-66
2024/03/19 09:49:32;;;;;;;1.27;0.60;;;;;;;7.07;47.18;100126.72;5094565;28;20157;-66
2024/03/19 09:52:06;;;;;;;0.55;0.50;;;;;;;7.23;47.37;100126.19;5078134;28;20182;-67
2024/03/19 09:54:35;;;;;;;0.38;0.38;;;;;;;7.30;47.09;100130.56;5077653;28;20410;-67
2024/03/19 09:57:04;;;;;;;0.70;0.70;;;;;;;7.26;45.51;100129.66;5094207;28;20033;-65
2024/03/19 09:59:32;;;;;;;1.33;1.23;;;;;;;7.24;46.00;100117.75;5094696;28;20496;-66
2024/03/19 10:02:00;;;;;;;0.82;0.82;;;;;;;7.38;45.90;100134.97;5077637;28;20040;-66
2024/03/19 10:04:28;;;;;;;0.90;0.60;;;;;;;7.40;45.09;100142.63;5074219;28;20150;-65
2024/03/19 10:06:56;;;;;;;0.52;0.45;;;;;;;7.19;45.85;100139.66;5077853;28;20044;-65
2024/03/19 10:09:33;;;;;;;1.42;0.88;;;;;;;7.11;45.88;100123.41;5061027;28;20043;-65
2024/03/19 10:12:02;;;;;;;2.40;1.40;;;;;;;7.27;45.71;100140.69;5094303;28;20059;-65
2024/03/19 10:14:34;;;;;;;1.10;0.82;;;;;;;7.35;45.83;100134.03;5094514;28;20454;-65
2024/03/19 10:17:02;;;;;;;0.60;0.60;;;;;;;7.47;44.98;100129.22;5095159;28;20493;-66
2024/03/19 10:19:29;;;;;;;0.63;0.63;;;;;;;7.33;45.09;100136.56;5077491;28;20044;-64
2024/03/19 10:21:57;;;;;;;0.30;0.30;;;;;;;7.15;45.05;100120.13;5077306;28;20047;-65
2024/03/19 10:24:26;;;;;;;0.57;0.57;;;;;;;7.31;45.46;100147.53;5077407;28;20066;-65
2024/03/19 10:26:55;;;;;;;0.77;0.77;;;;;;;7.31;45.63;100137.38;5094280;28;20142;-66
2024/03/19 10:29:22;;;;;;;0.60;0.60;;;;;;;7.36;44.92;100141.72;5094263;28;20040;-65
2024/03/19 10:31:50;;;;;;;0.50;0.50;;;;;;;7.58;46.08;100137.91;5077546;28;20101;-66
2024/03/19 10:34:19;;;;;;;0.60;0.60;;;;;;;7.84;46.50;100139.22;5094146;28;20048;-66
2024/03/19 10:36:49;;;;;;;0.85;0.85;;;;;;;8.14;46.70;100133.78;5094088;28;20024;-66
2024/03/19 10:39:19;;;;;;;1.50;1.30;;;;;;;8.28;46.63;100128.97;5094079;28;20152;-66
2024/03/19 10:41:51;;;;;;;2.10;1.60;;;;;;;8.33;45.87;100140.03;5093998;28;20402;-65
2024/03/19 10:44:20;;;;;;;0.90;0.90;;;;;;;8.45;45.21;100132.59;5076768;28;20463;-66
2024/03/19 10:46:49;;;;;;;0.70;0.70;;;;;;;8.89;45.32;100123.91;5093928;28;20048;-66
2024/03/19 10:49:18;;;;;;;;;;;;;;;9.55;46.43;100133.19;5094100;28;20062;-66
2024/03/19 10:51:48;;;;;;;0.45;0.45;;;;;;;9.84;45.31;100134.31;5093833;28;19920;-67
2024/03/19 10:54:21;;;;;;;0.60;0.60;;;;;;;9.94;45.67;100131.88;5093841;28;20122;-66
2024/03/19 10:56:51;;;;;;;0.70;0.70;;;;;;;9.76;45.57;100134.25;5093361;28;20066;-66
2024/03/19 10:59:19;;;;;;;1.02;0.98;;;;;;;9.65;45.19;100128.19;5093701;28;20073;-66
2024/03/19 11:01:48;;;;;;;0.70;0.70;;;;;;;9.34;45.40;100121.03;5093685;28;20043;-66
2024/03/19 11:04:16;;;;;;;1.45;1.35;;;;;;;9.24;44.12;100125.19;5093294;28;20122;-66
2024/03/19 11:06:56;;;;;;;0.57;0.57;;;;;;;9.27;44.09;100115.03;5093337;28;20401;-66
2024/03/19 11:09:26;;;;;;;1.07;1.00;;;;;;;9.50;43.99;100117.00;5075805;28;20048;-66
2024/03/19 11:12:01;;;;;;;1.50;1.15;;;;;;;9.90;44.52;100108.88;5093599;28;20131;-67
2024/03/19 11:14:30;;;;;;;0.65;0.65;;;;;;;10.22;43.47;100107.47;5093836;28;20138;-67
2024/03/19 11:16:58;;;;;;;1.77;1.45;;;;;;;10.61;44.11;100099.22;5093742;28;20048;-67
2024/03/19 11:19:29;;;;;;;0.98;0.98;;;;;;;10.84;44.05;100104.47;5093059;28;20379;-67
2024/03/19 11:21:59;;;;;;;1.25;0.95;;;;;;;10.35;42.26;100106.72;5093394;28;20058;-67
2024/03/19 11:24:28;;;;;;;;;;;;;;;10.24;42.24;100105.81;5076642;28;20071;-66
2024/03/19 11:26:58;;;;;;;1.77;1.25;;;;;;;10.64;43.21;100102.66;5093373;28;19920;-67
2024/03/19 11:29:27;;;;;;;1.38;1.27;;;;;;;10.90;43.58;100099.38;5093057;28;20063;-67
2024/03/19 11:31:58;;;;;;;0.93;0.93;;;;;;;11.19;43.96;100092.69;5076323;28;20028;-67
2024/03/19 11:34:27;;;;;;;1.08;1.00;;;;;;;11.34;42.78;100097.84;5092819;28;20051;-67
2024/03/19 11:36:55;;;;;;;0.77;0.73;;;;;;;11.25;41.60;100097.81;5092814;28;20047;-67
2024/03/19 11:39:23;;;;;;;0.43;0.43;;;;;;;11.14;41.69;100100.34;5076013;28;20040;-67
2024/03/19 11:41:51;;;;;;;1.35;1.30;;;;;;;11.19;42.16;100093.53;5092983;28;20040;-67
2024/03/19 11:44:23;;;;;;;1.05;0.95;;;;;;;10.99;41.13;100096.88;5092949;28;20506;-67